sensor_id;sensor_type;location;lat;lon;timestamp;P1;durP1;ratioP1;P2;durP2;ratioP2
55647;SDS011;45266;48.756;9.246;2023-02-26T00:00:43;3.37;;;2.33;;
55647;SDS011;45266;48.756;9.246;2023-02-26T00:01:44;4.77;;;2.20;;
55647;SDS011;45266;48.756;9.246;2023-02-26T00:02:47;3.20;;;2.30;;
55647;SDS011;45266;48.756;9.246;2023-02-26T00:03:49;3.40;;;2.00;;
55647;SDS011;45266;48.756;9.246;2023-02-26T00:04:52;3.80;;;2.27;;
55647;SDS011;45266;48.756;9.246;2023-02-26T00:05:58;3.63;;;2.07;;
55647;SDS011;45266;48.756;9.246;2023-02-26T00:07:01;2.43;;;2.00;;
55647;SDS011;45266;48.756;9.246;2023-02-26T00:08:05;2.83;;;2.03;;
55647;SDS011;45266;48.756;9.246;2023-02-26T00:09:07;5.43;;;2.30;;
55647;SDS011;45266;48.756;9.246;2023-02-26T00:10:10;3.17;;;2.33;;
55647;SDS011;45266;48.756;9.246;2023-02-26T00:11:13;5.00;;;2.50;;
55647;SDS011;45266;48.756;9.246;2023-02-26T00:12:15;4.60;;;2.30;;
55647;SDS011;45266;48.756;9.246;2023-02-26T00:13:18;3.10;;;2.10;;
55647;SDS011;45266;48.756;9.246;2023-02-26T00:14:20;3.67;;;2.50;;
55647;SDS011;45266;48.756;9.246;2023-02-26T00:15:22;2.90;;;2.27;;
55647;SDS011;45266;48.756;9.246;2023-02-26T00:16:31;3.73;;;1.90;;
55647;SDS011;45266;48.756;9.246;2023-02-26T00:17:36;4.00;;;2.10;;
55647;SDS011;45266;48.756;9.246;2023-02-26T00:18:41;3.30;;;2.23;;
55647;SDS011;45266;48.756;9.246;2023-02-26T00:19:42;5.77;;;2.23;;
55647;SDS011;45266;48.756;9.246;2023-02-26T00:20:45;3.70;;;2.40;;
55647;SDS011;45266;48.756;9.246;2023-02-26T00:21:47;3.83;;;2.43;;
55647;SDS011;45266;48.756;9.246;2023-02-26T00:22:49;3.87;;;2.37;;
55647;SDS011;45266;48.756;9.246;2023-02-26T00:23:51;3.10;;;2.20;;
55647;SDS011;45266;48.756;9.246;2023-02-26T00:24:53;5.37;;;2.63;;
55647;SDS011;45266;48.756;9.246;2023-02-26T00:25:56;6.37;;;2.60;;
55647;SDS011;45266;48.756;9.246;2023-02-26T00:26:58;4.53;;;2.23;;
55647;SDS011;45266;48.756;9.246;2023-02-26T00:28:00;3.77;;;2.20;;
55647;SDS011;45266;48.756;9.246;2023-02-26T00:29:03;2.63;;;2.10;;
55647;SDS011;45266;48.756;9.246;2023-02-26T00:30:06;3.57;;;2.13;;
55647;SDS011;45266;48.756;9.246;2023-02-26T00:31:09;4.27;;;2.20;;
55647;SDS011;45266;48.756;9.246;2023-02-26T00:32:12;5.30;;;2.20;;
55647;SDS011;45266;48.756;9.246;2023-02-26T00:33:14;3.70;;;2.30;;
55647;SDS011;45266;48.756;9.246;2023-02-26T00:34:16;4.30;;;2.20;;
55647;SDS011;45266;48.756;9.246;2023-02-26T00:35:18;4.33;;;1.83;;
55647;SDS011;45266;48.756;9.246;2023-02-26T00:36:21;4.43;;;2.10;;
55647;SDS011;45266;48.756;9.246;2023-02-26T00:40:33;3.57;;;2.30;;
55647;SDS011;45266;48.756;9.246;2023-02-26T00:41:43;2.90;;;2.10;;
55647;SDS011;45266;48.756;9.246;2023-02-26T00:42:45;2.87;;;2.37;;
55647;SDS011;45266;48.756;9.246;2023-02-26T00:43:48;3.13;;;2.10;;
55647;SDS011;45266;48.756;9.246;2023-02-26T00:44:49;3.50;;;2.27;;
55647;SDS011;45266;48.756;9.246;2023-02-26T00:48:41;5.53;;;2.63;;
55647;SDS011;45266;48.756;9.246;2023-02-26T00:50:12;4.30;;;2.30;;
55647;SDS011;45266;48.756;9.246;2023-02-26T00:52:31;3.60;;;2.40;;
55647;SDS011;45266;48.756;9.246;2023-02-26T00:53:46;3.37;;;2.40;;
55647;SDS011;45266;48.756;9.246;2023-02-26T00:54:55;5.13;;;2.30;;
55647;SDS011;45266;48.756;9.246;2023-02-26T00:55:56;3.63;;;2.20;;
55647;SDS011;45266;48.756;9.246;2023-02-26T00:56:58;3.90;;;2.60;;
55647;SDS011;45266;48.756;9.246;2023-02-26T00:58:00;3.93;;;2.30;;
55647;SDS011;45266;48.756;9.246;2023-02-26T00:59:02;5.27;;;2.63;;
55647;SDS011;45266;48.756;9.246;2023-02-26T01:00:04;3.77;;;2.53;;
55647;SDS011;45266;48.756;9.246;2023-02-26T01:01:08;2.87;;;2.43;;
55647;SDS011;45266;48.756;9.246;2023-02-26T01:02:10;2.40;;;1.97;;
55647;SDS011;45266;48.756;9.246;2023-02-26T01:03:11;3.50;;;2.33;;
55647;SDS011;45266;48.756;9.246;2023-02-26T01:04:14;5.13;;;2.70;;
55647;SDS011;45266;48.756;9.246;2023-02-26T01:05:18;2.83;;;2.30;;
55647;SDS011;45266;48.756;9.246;2023-02-26T01:08:44;3.50;;;2.40;;
55647;SDS011;45266;48.756;9.246;2023-02-26T01:09:58;4.37;;;2.30;;
55647;SDS011;45266;48.756;9.246;2023-02-26T01:11:00;2.50;;;1.90;;
55647;SDS011;45266;48.756;9.246;2023-02-26T01:12:09;2.93;;;2.50;;
55647;SDS011;45266;48.756;9.246;2023-02-26T01:13:13;2.83;;;2.20;;
55647;SDS011;45266;48.756;9.246;2023-02-26T01:14:16;6.17;;;2.47;;
55647;SDS011;45266;48.756;9.246;2023-02-26T01:15:18;3.10;;;2.40;;
55647;SDS011;45266;48.756;9.246;2023-02-26T01:16:21;5.33;;;2.90;;
55647;SDS011;45266;48.756;9.246;2023-02-26T01:17:32;2.47;;;2.17;;
55647;SDS011;45266;48.756;9.246;2023-02-26T01:19:02;4.07;;;2.53;;
55647;SDS011;45266;48.756;9.246;2023-02-26T01:20:16;5.03;;;2.13;;
55647;SDS011;45266;48.756;9.246;2023-02-26T01:21:21;2.43;;;2.17;;
55647;SDS011;45266;48.756;9.246;2023-02-26T01:22:31;4.53;;;2.57;;
55647;SDS011;45266;48.756;9.246;2023-02-26T01:23:39;3.60;;;2.30;;
55647;SDS011;45266;48.756;9.246;2023-02-26T01:24:43;3.27;;;2.27;;
55647;SDS011;45266;48.756;9.246;2023-02-26T01:25:58;3.50;;;2.30;;
55647;SDS011;45266;48.756;9.246;2023-02-26T01:27:06;4.00;;;2.30;;
55647;SDS011;45266;48.756;9.246;2023-02-26T01:28:08;4.53;;;2.50;;
55647;SDS011;45266;48.756;9.246;2023-02-26T01:29:10;3.07;;;2.20;;
55647;SDS011;45266;48.756;9.246;2023-02-26T01:30:12;3.60;;;2.50;;
55647;SDS011;45266;48.756;9.246;2023-02-26T01:31:23;3.37;;;2.60;;
55647;SDS011;45266;48.756;9.246;2023-02-26T01:32:35;4.07;;;2.30;;
55647;SDS011;45266;48.756;9.246;2023-02-26T01:33:50;5.07;;;2.57;;
55647;SDS011;45266;48.756;9.246;2023-02-26T01:35:01;6.17;;;2.33;;
55647;SDS011;45266;48.756;9.246;2023-02-26T01:36:30;4.67;;;2.50;;
55647;SDS011;45266;48.756;9.246;2023-02-26T01:38:00;5.10;;;2.40;;
55647;SDS011;45266;48.756;9.246;2023-02-26T01:39:05;5.07;;;2.40;;
55647;SDS011;45266;48.756;9.246;2023-02-26T01:40:34;6.23;;;2.83;;
55647;SDS011;45266;48.756;9.246;2023-02-26T01:42:49;6.70;;;2.93;;
55647;SDS011;45266;48.756;9.246;2023-02-26T01:45:31;5.13;;;2.43;;
55647;SDS011;45266;48.756;9.246;2023-02-26T01:48:10;4.37;;;2.43;;
55647;SDS011;45266;48.756;9.246;2023-02-26T01:49:18;3.63;;;2.40;;
55647;SDS011;45266;48.756;9.246;2023-02-26T01:50:21;3.67;;;2.17;;
55647;SDS011;45266;48.756;9.246;2023-02-26T01:51:46;4.47;;;2.57;;
55647;SDS011;45266;48.756;9.246;2023-02-26T01:53:17;6.13;;;2.30;;
55647;SDS011;45266;48.756;9.246;2023-02-26T01:55:36;3.07;;;2.60;;
55647;SDS011;45266;48.756;9.246;2023-02-26T01:56:38;3.23;;;2.20;;
55647;SDS011;45266;48.756;9.246;2023-02-26T01:57:41;2.80;;;2.23;;
55647;SDS011;45266;48.756;9.246;2023-02-26T01:58:44;3.93;;;2.57;;
55647;SDS011;45266;48.756;9.246;2023-02-26T01:59:49;4.10;;;2.40;;
55647;SDS011;45266;48.756;9.246;2023-02-26T02:00:52;6.90;;;2.43;;
55647;SDS011;45266;48.756;9.246;2023-02-26T02:01:55;3.83;;;2.53;;
55647;SDS011;45266;48.756;9.246;2023-02-26T02:02:58;4.90;;;2.87;;
55647;SDS011;45266;48.756;9.246;2023-02-26T02:04:00;3.93;;;2.40;;
55647;SDS011;45266;48.756;9.246;2023-02-26T02:05:04;5.13;;;2.50;;
55647;SDS011;45266;48.756;9.246;2023-02-26T02:06:16;4.93;;;2.47;;
55647;SDS011;45266;48.756;9.246;2023-02-26T02:07:21;7.97;;;2.73;;
55647;SDS011;45266;48.756;9.246;2023-02-26T02:08:22;3.33;;;2.40;;
55647;SDS011;45266;48.756;9.246;2023-02-26T02:09:25;5.23;;;2.60;;
55647;SDS011;45266;48.756;9.246;2023-02-26T02:10:27;3.27;;;2.30;;
55647;SDS011;45266;48.756;9.246;2023-02-26T02:11:29;6.43;;;2.40;;
55647;SDS011;45266;48.756;9.246;2023-02-26T02:17:43;4.00;;;2.60;;
55647;SDS011;45266;48.756;9.246;2023-02-26T02:24:00;4.13;;;2.77;;
55647;SDS011;45266;48.756;9.246;2023-02-26T02:29:32;3.77;;;2.30;;
55647;SDS011;45266;48.756;9.246;2023-02-26T02:32:14;4.03;;;2.40;;
55647;SDS011;45266;48.756;9.246;2023-02-26T02:33:43;4.73;;;2.30;;
55647;SDS011;45266;48.756;9.246;2023-02-26T02:34:52;4.50;;;2.37;;
55647;SDS011;45266;48.756;9.246;2023-02-26T02:36:04;5.77;;;2.40;;
55647;SDS011;45266;48.756;9.246;2023-02-26T02:37:13;2.87;;;2.30;;
55647;SDS011;45266;48.756;9.246;2023-02-26T02:38:24;5.43;;;2.40;;
55647;SDS011;45266;48.756;9.246;2023-02-26T02:39:43;2.80;;;2.07;;
55647;SDS011;45266;48.756;9.246;2023-02-26T02:41:10;4.10;;;2.57;;
55647;SDS011;45266;48.756;9.246;2023-02-26T02:42:48;5.23;;;2.50;;
55647;SDS011;45266;48.756;9.246;2023-02-26T02:43:58;2.70;;;2.10;;
55647;SDS011;45266;48.756;9.246;2023-02-26T02:45:08;4.20;;;2.40;;
55647;SDS011;45266;48.756;9.246;2023-02-26T02:46:24;3.40;;;2.33;;
55647;SDS011;45266;48.756;9.246;2023-02-26T02:47:39;3.80;;;2.30;;
55647;SDS011;45266;48.756;9.246;2023-02-26T02:51:23;3.30;;;2.20;;
55647;SDS011;45266;48.756;9.246;2023-02-26T02:52:38;3.90;;;2.57;;
55647;SDS011;45266;48.756;9.246;2023-02-26T02:54:04;4.37;;;2.40;;
55647;SDS011;45266;48.756;9.246;2023-02-26T02:55:17;4.63;;;2.47;;
55647;SDS011;45266;48.756;9.246;2023-02-26T02:56:23;4.23;;;2.30;;
55647;SDS011;45266;48.756;9.246;2023-02-26T02:57:32;3.87;;;2.77;;
55647;SDS011;45266;48.756;9.246;2023-02-26T02:58:43;4.60;;;2.20;;
55647;SDS011;45266;48.756;9.246;2023-02-26T03:00:03;4.17;;;2.10;;
55647;SDS011;45266;48.756;9.246;2023-02-26T03:01:08;2.97;;;2.40;;
55647;SDS011;45266;48.756;9.246;2023-02-26T03:02:28;4.10;;;2.37;;
55647;SDS011;45266;48.756;9.246;2023-02-26T03:05:00;4.60;;;2.53;;
55647;SDS011;45266;48.756;9.246;2023-02-26T03:06:02;3.33;;;2.47;;
55647;SDS011;45266;48.756;9.246;2023-02-26T03:07:04;4.30;;;2.60;;
55647;SDS011;45266;48.756;9.246;2023-02-26T03:08:07;3.63;;;2.40;;
55647;SDS011;45266;48.756;9.246;2023-02-26T03:09:13;3.60;;;2.20;;
55647;SDS011;45266;48.756;9.246;2023-02-26T03:10:16;3.97;;;2.57;;
55647;SDS011;45266;48.756;9.246;2023-02-26T03:11:18;4.97;;;2.97;;
55647;SDS011;45266;48.756;9.246;2023-02-26T03:12:21;6.80;;;2.50;;
55647;SDS011;45266;48.756;9.246;2023-02-26T03:13:25;4.30;;;2.53;;
55647;SDS011;45266;48.756;9.246;2023-02-26T03:14:27;4.57;;;2.40;;
55647;SDS011;45266;48.756;9.246;2023-02-26T03:15:40;4.87;;;2.47;;
55647;SDS011;45266;48.756;9.246;2023-02-26T03:17:08;7.10;;;2.40;;
55647;SDS011;45266;48.756;9.246;2023-02-26T03:20:52;4.07;;;2.40;;
55647;SDS011;45266;48.756;9.246;2023-02-26T03:23:27;5.10;;;2.37;;
55647;SDS011;45266;48.756;9.246;2023-02-26T03:27:46;3.63;;;2.10;;
55647;SDS011;45266;48.756;9.246;2023-02-26T03:29:38;5.37;;;2.60;;
55647;SDS011;45266;48.756;9.246;2023-02-26T03:30:42;3.77;;;2.13;;
55647;SDS011;45266;48.756;9.246;2023-02-26T03:31:56;7.83;;;2.50;;
55647;SDS011;45266;48.756;9.246;2023-02-26T03:34:23;4.87;;;2.73;;
55647;SDS011;45266;48.756;9.246;2023-02-26T03:36:19;3.67;;;2.60;;
55647;SDS011;45266;48.756;9.246;2023-02-26T03:37:40;3.20;;;2.37;;
55647;SDS011;45266;48.756;9.246;2023-02-26T03:39:55;4.07;;;2.40;;
55647;SDS011;45266;48.756;9.246;2023-02-26T03:41:02;4.23;;;2.33;;
55647;SDS011;45266;48.756;9.246;2023-02-26T03:42:21;3.17;;;2.27;;
55647;SDS011;45266;48.756;9.246;2023-02-26T03:44:44;3.00;;;2.30;;
55647;SDS011;45266;48.756;9.246;2023-02-26T03:45:50;2.80;;;2.47;;
55647;SDS011;45266;48.756;9.246;2023-02-26T03:46:57;2.73;;;1.87;;
55647;SDS011;45266;48.756;9.246;2023-02-26T03:48:04;3.53;;;2.47;;
55647;SDS011;45266;48.756;9.246;2023-02-26T03:49:09;5.77;;;2.77;;
55647;SDS011;45266;48.756;9.246;2023-02-26T03:50:20;5.67;;;2.47;;
55647;SDS011;45266;48.756;9.246;2023-02-26T03:51:25;5.30;;;2.40;;
55647;SDS011;45266;48.756;9.246;2023-02-26T03:52:28;6.53;;;2.50;;
55647;SDS011;45266;48.756;9.246;2023-02-26T03:53:44;4.47;;;2.53;;
55647;SDS011;45266;48.756;9.246;2023-02-26T03:55:04;4.43;;;2.43;;
55647;SDS011;45266;48.756;9.246;2023-02-26T03:56:17;2.70;;;2.17;;
55647;SDS011;45266;48.756;9.246;2023-02-26T03:57:26;4.90;;;2.17;;
55647;SDS011;45266;48.756;9.246;2023-02-26T03:58:28;6.00;;;2.43;;
55647;SDS011;45266;48.756;9.246;2023-02-26T03:59:30;4.17;;;2.83;;
55647;SDS011;45266;48.756;9.246;2023-02-26T04:00:34;2.67;;;2.07;;
55647;SDS011;45266;48.756;9.246;2023-02-26T04:03:01;3.67;;;2.30;;
55647;SDS011;45266;48.756;9.246;2023-02-26T04:04:22;4.33;;;2.30;;
55647;SDS011;45266;48.756;9.246;2023-02-26T04:05:46;3.60;;;2.60;;
55647;SDS011;45266;48.756;9.246;2023-02-26T04:06:50;4.00;;;2.73;;
55647;SDS011;45266;48.756;9.246;2023-02-26T04:07:54;3.80;;;2.63;;
55647;SDS011;45266;48.756;9.246;2023-02-26T04:08:58;7.67;;;3.27;;
55647;SDS011;45266;48.756;9.246;2023-02-26T04:10:00;3.60;;;2.27;;
55647;SDS011;45266;48.756;9.246;2023-02-26T04:12:22;5.47;;;2.50;;
55647;SDS011;45266;48.756;9.246;2023-02-26T04:13:25;4.27;;;2.20;;
55647;SDS011;45266;48.756;9.246;2023-02-26T04:14:28;4.07;;;2.10;;
55647;SDS011;45266;48.756;9.246;2023-02-26T04:15:30;3.30;;;2.33;;
55647;SDS011;45266;48.756;9.246;2023-02-26T04:16:32;4.30;;;2.40;;
55647;SDS011;45266;48.756;9.246;2023-02-26T04:17:33;3.60;;;2.50;;
55647;SDS011;45266;48.756;9.246;2023-02-26T04:18:35;5.93;;;2.83;;
55647;SDS011;45266;48.756;9.246;2023-02-26T04:19:37;3.33;;;2.73;;
55647;SDS011;45266;48.756;9.246;2023-02-26T04:20:39;4.93;;;2.60;;
55647;SDS011;45266;48.756;9.246;2023-02-26T04:21:40;2.87;;;2.43;;
55647;SDS011;45266;48.756;9.246;2023-02-26T04:22:42;2.83;;;2.27;;
55647;SDS011;45266;48.756;9.246;2023-02-26T04:23:44;4.80;;;2.60;;
55647;SDS011;45266;48.756;9.246;2023-02-26T04:24:46;4.20;;;2.70;;
55647;SDS011;45266;48.756;9.246;2023-02-26T04:25:48;5.83;;;2.90;;
55647;SDS011;45266;48.756;9.246;2023-02-26T04:26:49;3.70;;;2.60;;
55647;SDS011;45266;48.756;9.246;2023-02-26T04:27:51;4.47;;;2.40;;
55647;SDS011;45266;48.756;9.246;2023-02-26T04:28:53;6.43;;;2.40;;
55647;SDS011;45266;48.756;9.246;2023-02-26T04:29:55;3.37;;;2.50;;
55647;SDS011;45266;48.756;9.246;2023-02-26T04:30:56;4.47;;;2.60;;
55647;SDS011;45266;48.756;9.246;2023-02-26T04:31:58;3.70;;;2.70;;
55647;SDS011;45266;48.756;9.246;2023-02-26T04:33:01;7.30;;;2.97;;
55647;SDS011;45266;48.756;9.246;2023-02-26T04:34:03;4.67;;;2.50;;
55647;SDS011;45266;48.756;9.246;2023-02-26T04:35:05;4.47;;;2.33;;
55647;SDS011;45266;48.756;9.246;2023-02-26T04:36:07;2.60;;;1.90;;
55647;SDS011;45266;48.756;9.246;2023-02-26T04:37:09;4.47;;;2.60;;
55647;SDS011;45266;48.756;9.246;2023-02-26T04:38:11;6.40;;;2.50;;
55647;SDS011;45266;48.756;9.246;2023-02-26T04:39:13;3.87;;;2.60;;
55647;SDS011;45266;48.756;9.246;2023-02-26T04:40:15;3.40;;;2.50;;
55647;SDS011;45266;48.756;9.246;2023-02-26T04:41:16;3.10;;;2.23;;
55647;SDS011;45266;48.756;9.246;2023-02-26T04:42:18;5.60;;;2.50;;
55647;SDS011;45266;48.756;9.246;2023-02-26T04:43:20;6.63;;;2.77;;
55647;SDS011;45266;48.756;9.246;2023-02-26T04:44:22;4.47;;;2.70;;
55647;SDS011;45266;48.756;9.246;2023-02-26T04:45:24;4.87;;;2.30;;
55647;SDS011;45266;48.756;9.246;2023-02-26T04:46:26;4.60;;;2.77;;
55647;SDS011;45266;48.756;9.246;2023-02-26T04:47:28;3.20;;;2.33;;
55647;SDS011;45266;48.756;9.246;2023-02-26T04:48:30;3.70;;;2.90;;
55647;SDS011;45266;48.756;9.246;2023-02-26T04:49:32;3.77;;;2.30;;
55647;SDS011;45266;48.756;9.246;2023-02-26T04:50:34;3.37;;;2.20;;
55647;SDS011;45266;48.756;9.246;2023-02-26T04:51:36;3.00;;;2.27;;
55647;SDS011;45266;48.756;9.246;2023-02-26T04:52:38;3.23;;;2.30;;
55647;SDS011;45266;48.756;9.246;2023-02-26T04:53:40;3.87;;;2.33;;
55647;SDS011;45266;48.756;9.246;2023-02-26T04:54:41;4.00;;;2.50;;
55647;SDS011;45266;48.756;9.246;2023-02-26T04:55:43;4.10;;;2.27;;
55647;SDS011;45266;48.756;9.246;2023-02-26T04:56:47;2.80;;;2.23;;
55647;SDS011;45266;48.756;9.246;2023-02-26T04:57:49;3.27;;;2.20;;
55647;SDS011;45266;48.756;9.246;2023-02-26T04:58:51;4.70;;;2.27;;
55647;SDS011;45266;48.756;9.246;2023-02-26T04:59:52;4.50;;;2.47;;
55647;SDS011;45266;48.756;9.246;2023-02-26T05:00:54;5.60;;;2.57;;
55647;SDS011;45266;48.756;9.246;2023-02-26T05:01:57;5.17;;;2.60;;
55647;SDS011;45266;48.756;9.246;2023-02-26T05:02:59;6.50;;;2.40;;
55647;SDS011;45266;48.756;9.246;2023-02-26T05:04:01;3.20;;;2.20;;
55647;SDS011;45266;48.756;9.246;2023-02-26T05:05:03;4.30;;;2.50;;
55647;SDS011;45266;48.756;9.246;2023-02-26T05:06:05;4.70;;;2.70;;
55647;SDS011;45266;48.756;9.246;2023-02-26T05:07:07;3.30;;;2.50;;
55647;SDS011;45266;48.756;9.246;2023-02-26T05:08:09;4.20;;;2.40;;
55647;SDS011;45266;48.756;9.246;2023-02-26T05:09:11;3.47;;;2.47;;
55647;SDS011;45266;48.756;9.246;2023-02-26T05:10:12;4.03;;;2.83;;
55647;SDS011;45266;48.756;9.246;2023-02-26T05:11:14;3.37;;;2.40;;
55647;SDS011;45266;48.756;9.246;2023-02-26T05:12:16;4.80;;;2.47;;
55647;SDS011;45266;48.756;9.246;2023-02-26T05:13:18;5.17;;;2.33;;
55647;SDS011;45266;48.756;9.246;2023-02-26T05:14:20;4.00;;;2.50;;
55647;SDS011;45266;48.756;9.246;2023-02-26T05:15:22;5.90;;;2.60;;
55647;SDS011;45266;48.756;9.246;2023-02-26T05:16:24;3.87;;;2.73;;
55647;SDS011;45266;48.756;9.246;2023-02-26T05:17:26;3.10;;;2.27;;
55647;SDS011;45266;48.756;9.246;2023-02-26T05:18:28;3.33;;;2.60;;
55647;SDS011;45266;48.756;9.246;2023-02-26T05:19:30;5.37;;;2.70;;
55647;SDS011;45266;48.756;9.246;2023-02-26T05:20:31;3.87;;;2.67;;
55647;SDS011;45266;48.756;9.246;2023-02-26T05:21:33;5.57;;;2.30;;
55647;SDS011;45266;48.756;9.246;2023-02-26T05:22:36;6.10;;;2.53;;
55647;SDS011;45266;48.756;9.246;2023-02-26T05:23:38;5.07;;;2.37;;
55647;SDS011;45266;48.756;9.246;2023-02-26T05:24:40;3.20;;;2.23;;
55647;SDS011;45266;48.756;9.246;2023-02-26T05:25:42;3.60;;;2.33;;
55647;SDS011;45266;48.756;9.246;2023-02-26T05:26:43;5.60;;;2.70;;
55647;SDS011;45266;48.756;9.246;2023-02-26T05:27:46;5.17;;;2.10;;
55647;SDS011;45266;48.756;9.246;2023-02-26T05:28:48;3.27;;;2.33;;
55647;SDS011;45266;48.756;9.246;2023-02-26T05:29:50;7.90;;;2.80;;
55647;SDS011;45266;48.756;9.246;2023-02-26T05:30:51;5.50;;;2.63;;
55647;SDS011;45266;48.756;9.246;2023-02-26T05:31:54;4.90;;;2.73;;
55647;SDS011;45266;48.756;9.246;2023-02-26T05:32:56;4.40;;;2.60;;
55647;SDS011;45266;48.756;9.246;2023-02-26T05:33:57;3.30;;;2.33;;
55647;SDS011;45266;48.756;9.246;2023-02-26T05:34:59;4.30;;;2.13;;
55647;SDS011;45266;48.756;9.246;2023-02-26T05:36:01;3.70;;;1.83;;
55647;SDS011;45266;48.756;9.246;2023-02-26T05:37:03;10.13;;;2.83;;
55647;SDS011;45266;48.756;9.246;2023-02-26T05:38:05;4.07;;;2.03;;
55647;SDS011;45266;48.756;9.246;2023-02-26T05:39:08;6.57;;;2.73;;
55647;SDS011;45266;48.756;9.246;2023-02-26T05:40:10;3.87;;;2.13;;
55647;SDS011;45266;48.756;9.246;2023-02-26T05:41:13;5.20;;;2.87;;
55647;SDS011;45266;48.756;9.246;2023-02-26T05:42:15;4.40;;;2.57;;
55647;SDS011;45266;48.756;9.246;2023-02-26T05:43:17;5.67;;;2.60;;
55647;SDS011;45266;48.756;9.246;2023-02-26T05:44:19;3.70;;;2.50;;
55647;SDS011;45266;48.756;9.246;2023-02-26T05:45:21;4.80;;;2.43;;
55647;SDS011;45266;48.756;9.246;2023-02-26T05:46:23;4.30;;;2.47;;
55647;SDS011;45266;48.756;9.246;2023-02-26T05:47:25;4.30;;;2.23;;
55647;SDS011;45266;48.756;9.246;2023-02-26T05:48:27;3.37;;;2.30;;
55647;SDS011;45266;48.756;9.246;2023-02-26T05:49:29;5.03;;;2.27;;
55647;SDS011;45266;48.756;9.246;2023-02-26T05:50:31;4.00;;;2.30;;
55647;SDS011;45266;48.756;9.246;2023-02-26T05:51:32;5.60;;;2.30;;
55647;SDS011;45266;48.756;9.246;2023-02-26T05:52:34;4.27;;;2.40;;
55647;SDS011;45266;48.756;9.246;2023-02-26T05:53:36;4.33;;;2.57;;
55647;SDS011;45266;48.756;9.246;2023-02-26T05:54:37;4.67;;;2.53;;
55647;SDS011;45266;48.756;9.246;2023-02-26T05:55:39;3.10;;;2.17;;
55647;SDS011;45266;48.756;9.246;2023-02-26T05:56:41;3.33;;;2.50;;
55647;SDS011;45266;48.756;9.246;2023-02-26T05:57:43;3.60;;;2.40;;
55647;SDS011;45266;48.756;9.246;2023-02-26T05:58:44;2.70;;;2.23;;
55647;SDS011;45266;48.756;9.246;2023-02-26T05:59:46;5.03;;;2.37;;
55647;SDS011;45266;48.756;9.246;2023-02-26T06:00:48;3.70;;;2.20;;
55647;SDS011;45266;48.756;9.246;2023-02-26T06:01:50;3.83;;;2.33;;
55647;SDS011;45266;48.756;9.246;2023-02-26T06:02:51;6.50;;;2.63;;
55647;SDS011;45266;48.756;9.246;2023-02-26T06:03:54;4.83;;;2.20;;
55647;SDS011;45266;48.756;9.246;2023-02-26T06:04:55;2.43;;;2.00;;
55647;SDS011;45266;48.756;9.246;2023-02-26T06:05:57;5.33;;;2.17;;
55647;SDS011;45266;48.756;9.246;2023-02-26T06:06:59;2.87;;;2.40;;
55647;SDS011;45266;48.756;9.246;2023-02-26T06:08:02;5.13;;;2.60;;
55647;SDS011;45266;48.756;9.246;2023-02-26T06:09:05;7.20;;;2.90;;
55647;SDS011;45266;48.756;9.246;2023-02-26T06:10:07;4.23;;;2.67;;
55647;SDS011;45266;48.756;9.246;2023-02-26T06:11:10;4.37;;;2.63;;
55647;SDS011;45266;48.756;9.246;2023-02-26T06:12:12;3.87;;;2.40;;
55647;SDS011;45266;48.756;9.246;2023-02-26T06:13:14;4.80;;;2.50;;
55647;SDS011;45266;48.756;9.246;2023-02-26T06:14:16;4.40;;;2.43;;
55647;SDS011;45266;48.756;9.246;2023-02-26T06:15:18;5.80;;;2.50;;
55647;SDS011;45266;48.756;9.246;2023-02-26T06:16:20;5.80;;;2.30;;
55647;SDS011;45266;48.756;9.246;2023-02-26T06:17:22;4.33;;;2.47;;
55647;SDS011;45266;48.756;9.246;2023-02-26T06:18:24;3.40;;;2.50;;
55647;SDS011;45266;48.756;9.246;2023-02-26T06:19:26;4.37;;;2.73;;
55647;SDS011;45266;48.756;9.246;2023-02-26T06:20:28;4.50;;;2.73;;
55647;SDS011;45266;48.756;9.246;2023-02-26T06:21:29;4.37;;;2.80;;
55647;SDS011;45266;48.756;9.246;2023-02-26T06:22:31;5.63;;;3.53;;
55647;SDS011;45266;48.756;9.246;2023-02-26T06:23:33;5.17;;;2.87;;
55647;SDS011;45266;48.756;9.246;2023-02-26T06:24:35;5.87;;;3.33;;
55647;SDS011;45266;48.756;9.246;2023-02-26T06:25:37;3.83;;;2.73;;
55647;SDS011;45266;48.756;9.246;2023-02-26T06:26:38;3.60;;;2.60;;
55647;SDS011;45266;48.756;9.246;2023-02-26T06:27:40;5.13;;;2.80;;
55647;SDS011;45266;48.756;9.246;2023-02-26T06:28:42;6.17;;;2.67;;
55647;SDS011;45266;48.756;9.246;2023-02-26T06:29:44;6.43;;;2.37;;
55647;SDS011;45266;48.756;9.246;2023-02-26T06:30:46;5.47;;;2.30;;
55647;SDS011;45266;48.756;9.246;2023-02-26T06:31:48;5.37;;;2.60;;
55647;SDS011;45266;48.756;9.246;2023-02-26T06:32:50;6.10;;;2.90;;
55647;SDS011;45266;48.756;9.246;2023-02-26T06:33:52;6.00;;;2.70;;
55647;SDS011;45266;48.756;9.246;2023-02-26T06:34:54;4.07;;;2.80;;
55647;SDS011;45266;48.756;9.246;2023-02-26T06:35:55;5.10;;;2.87;;
55647;SDS011;45266;48.756;9.246;2023-02-26T06:36:59;4.13;;;2.60;;
55647;SDS011;45266;48.756;9.246;2023-02-26T06:38:01;5.53;;;2.80;;
55647;SDS011;45266;48.756;9.246;2023-02-26T06:39:03;4.30;;;2.63;;
55647;SDS011;45266;48.756;9.246;2023-02-26T06:40:06;5.40;;;2.57;;
55647;SDS011;45266;48.756;9.246;2023-02-26T06:41:11;4.73;;;2.80;;
55647;SDS011;45266;48.756;9.246;2023-02-26T06:42:13;5.53;;;2.63;;
55647;SDS011;45266;48.756;9.246;2023-02-26T06:43:16;5.17;;;3.07;;
55647;SDS011;45266;48.756;9.246;2023-02-26T06:44:18;5.67;;;3.00;;
55647;SDS011;45266;48.756;9.246;2023-02-26T06:45:20;6.43;;;2.90;;
55647;SDS011;45266;48.756;9.246;2023-02-26T06:46:22;5.87;;;3.00;;
55647;SDS011;45266;48.756;9.246;2023-02-26T06:47:24;5.57;;;3.07;;
55647;SDS011;45266;48.756;9.246;2023-02-26T06:48:26;5.83;;;3.00;;
55647;SDS011;45266;48.756;9.246;2023-02-26T06:49:28;7.27;;;3.33;;
55647;SDS011;45266;48.756;9.246;2023-02-26T06:50:30;4.60;;;3.60;;
55647;SDS011;45266;48.756;9.246;2023-02-26T06:51:31;6.57;;;4.13;;
55647;SDS011;45266;48.756;9.246;2023-02-26T06:52:33;7.70;;;3.00;;
55647;SDS011;45266;48.756;9.246;2023-02-26T06:53:35;4.30;;;2.90;;
55647;SDS011;45266;48.756;9.246;2023-02-26T06:54:37;7.13;;;4.00;;
55647;SDS011;45266;48.756;9.246;2023-02-26T06:55:42;6.23;;;3.70;;
55647;SDS011;45266;48.756;9.246;2023-02-26T06:56:45;5.33;;;3.20;;
55647;SDS011;45266;48.756;9.246;2023-02-26T06:57:47;5.97;;;3.67;;
55647;SDS011;45266;48.756;9.246;2023-02-26T06:58:49;6.17;;;3.93;;
55647;SDS011;45266;48.756;9.246;2023-02-26T06:59:51;8.03;;;5.00;;
55647;SDS011;45266;48.756;9.246;2023-02-26T07:00:53;7.97;;;4.43;;
55647;SDS011;45266;48.756;9.246;2023-02-26T07:01:54;8.77;;;5.23;;
55647;SDS011;45266;48.756;9.246;2023-02-26T07:02:57;6.27;;;4.07;;
55647;SDS011;45266;48.756;9.246;2023-02-26T07:03:59;7.43;;;4.20;;
55647;SDS011;45266;48.756;9.246;2023-02-26T07:05:01;5.47;;;3.60;;
55647;SDS011;45266;48.756;9.246;2023-02-26T07:06:03;9.80;;;4.27;;
55647;SDS011;45266;48.756;9.246;2023-02-26T07:07:27;7.80;;;4.50;;
55647;SDS011;45266;48.756;9.246;2023-02-26T07:08:29;6.10;;;4.50;;
55647;SDS011;45266;48.756;9.246;2023-02-26T07:09:30;10.20;;;6.57;;
55647;SDS011;45266;48.756;9.246;2023-02-26T07:10:32;13.20;;;6.97;;
55647;SDS011;45266;48.756;9.246;2023-02-26T07:11:35;12.50;;;7.40;;
55647;SDS011;45266;48.756;9.246;2023-02-26T07:12:37;10.93;;;6.63;;
55647;SDS011;45266;48.756;9.246;2023-02-26T07:13:39;10.40;;;5.87;;
55647;SDS011;45266;48.756;9.246;2023-02-26T07:14:41;12.63;;;8.07;;
55647;SDS011;45266;48.756;9.246;2023-02-26T07:15:43;8.13;;;5.73;;
55647;SDS011;45266;48.756;9.246;2023-02-26T07:16:46;10.90;;;6.37;;
55647;SDS011;45266;48.756;9.246;2023-02-26T07:17:48;9.20;;;6.33;;
55647;SDS011;45266;48.756;9.246;2023-02-26T07:18:50;12.07;;;6.43;;
55647;SDS011;45266;48.756;9.246;2023-02-26T07:19:51;7.83;;;5.23;;
55647;SDS011;45266;48.756;9.246;2023-02-26T07:20:53;7.77;;;5.10;;
55647;SDS011;45266;48.756;9.246;2023-02-26T07:21:55;11.37;;;5.30;;